Latest Weather Observations for Grafton AgRS

IDN60801

Issued at 4:05 pm EDT Saturday 25 October 2014 (issued every 30 minutes, with the page automatically refreshed every 10 minutes)

About weather observations | Map of weather stations | Latest weather observations for NSW | Other Formats
Station Details ID: 058077 Name: GRAFTON RESEARCH STN Lat: -29.62 Lon: 152.96 Height: 25.0 m
Data from the previous 72 hours. | See also: Recent months for locations in New South Wales
Date/Time
EDT
Temp
°C
App
Temp
°C
Dew
Point
Rel
Hum
%
Delta-T
°C
Wind Press
QNH
hPa
Press
MSL
hPa
Rain
since 9 am
mm
Dir
 
Spd
km/h
Gust
km/h
Spd
kts
Gust
kts
25/04:00pm 32.4 31.4 17.5 41 9.5 E 19 28 10 15 - - 0.0
25/03:30pm 33.2 31.8 17.0 38 10.3 E 20 30 11 16 - - 0.0
25/03:00pm 33.3 31.9 17.0 37 10.4 E 20 30 11 16 - - 0.0
25/02:30pm 34.7 32.9 17.0 35 11.3 E 22 30 12 16 - - 0.0
25/02:00pm 35.1 34.8 15.4 30 12.3 E 11 28 6 15 - - 0.0
25/01:30pm 35.1 34.4 13.3 27 13.3 NNE 9 17 5 9 - - 0.0
25/01:00pm 33.4 33.3 14.9 32 11.4 ESE 9 15 5 8 - - 0.0
25/12:30pm 32.0 32.7 17.1 41 9.5 NNE 9 15 5 8 - - 0.0
25/12:00pm 31.0 32.4 17.3 43 8.7 NW 6 11 3 6 - - 0.0
25/11:30am 29.6 30.4 16.4 45 8.2 WNW 7 9 4 5 - - 0.0
25/11:00am 28.1 28.9 16.4 49 7.3 N 7 13 4 7 - - 0.0
25/10:30am 26.3 26.6 16.0 53 6.3 N 9 13 5 7 - - 0.0
25/10:00am 24.9 25.2 16.1 58 5.4 N 9 15 5 8 - - 0.0
25/09:30am 23.4 24.0 15.7 62 4.6 NNE 7 13 4 7 - - 0.0
25/09:00am 22.0 21.8 15.8 68 3.7 N 11 17 6 9 - - 0.0
25/08:30am 20.7 20.0 15.3 71 3.2 N 13 20 7 11 - - 0.0
25/08:00am 19.5 19.8 16.0 80 2.1 NNE 9 13 5 7 - - 0.0
25/07:30am 17.6 17.4 15.8 89 1.1 NNE 11 15 6 8 - - 0.0
25/07:00am 16.4 17.9 15.6 95 0.5 NNE 2 9 1 5 - - 0.0
25/06:30am 15.8 17.5 15.2 96 0.3 CALM 0 0 0 0 - - 0.0
25/06:00am 15.6 17.1 14.6 94 0.6 NW 0 0 0 0 - - 0.0
25/05:30am 16.0 16.9 15.0 94 0.6 N 4 7 2 4 - - 0.0
25/05:00am 16.0 17.3 15.2 95 0.5 N 2 9 1 5 - - 0.0
25/04:30am 16.0 17.6 15.0 94 0.6 CALM 0 6 0 3 - - 0.0
25/04:00am 16.3 16.7 15.3 94 0.6 N 7 9 4 5 - - 0.0
25/03:30am 15.8 16.3 15.0 95 0.5 N 6 9 3 5 - - 0.0
25/03:00am 16.0 16.0 15.2 95 0.5 N 9 11 5 6 - - 0.0
25/02:30am 16.2 16.3 15.4 95 0.5 NW 9 11 5 6 - - 0.0
25/02:00am 16.5 16.9 15.4 93 0.6 NW 7 7 4 4 - - 0.0
25/01:30am 16.5 17.8 15.2 92 0.8 N 2 6 1 3 - - 0.0
25/01:00am 16.9 18.7 15.4 91 0.9 CALM 0 0 0 0 - - 0.0
25/12:30am 17.3 19.3 16.0 92 0.8 CALM 0 0 0 0 - - 0.0
25/12:00am 17.2 19.2 15.9 92 0.8 W 0 0 0 0 - - 0.0
 
Date/Time
EDT
Temp
°C
App
Temp
°C
Dew
Point
Rel
Hum
%
Delta-T
°C
Wind Press
QNH
hPa
Press
MSL
hPa
Rain
since 9 am
mm
Dir
 
Spd
km/h
Gust
km/h
Spd
kts
Gust
kts
24/11:30pm 17.3 19.1 15.6 90 1.0 W 0 0 0 0 - - 0.0
24/11:00pm 17.8 18.4 15.8 88 1.2 NE 7 13 4 7 - - 0.0
24/10:30pm 18.2 18.9 15.6 85 1.5 NE 6 6 3 3 - - 0.0
24/10:00pm 18.5 19.2 15.7 84 1.7 ENE 6 9 3 5 - - 0.0
24/09:30pm 18.7 20.3 15.9 84 1.7 ENE 2 7 1 4 - - 0.0
24/09:00pm 19.1 19.9 15.8 81 2.0 ENE 6 9 3 5 - - 0.0
24/08:30pm 19.6 20.3 16.1 80 2.1 ENE 7 11 4 6 - - 0.0
24/08:00pm 19.9 20.2 16.0 78 2.3 ENE 9 15 5 8 - - 0.0
24/07:30pm 20.5 20.1 16.1 76 2.6 ENE 13 20 7 11 - - 0.0
24/07:00pm 21.0 20.6 16.2 74 2.9 ENE 13 22 7 12 - - 0.0
24/06:30pm 21.9 21.2 16.4 71 3.3 ENE 15 28 8 15 - - 0.0
24/06:00pm 22.6 21.4 16.2 67 3.9 ENE 17 26 9 14 - - 0.0
24/05:30pm 23.5 21.7 16.1 63 4.5 ENE 20 32 11 17 - - 0.0
24/05:00pm 24.3 22.6 16.3 61 4.9 ENE 20 35 11 19 - - 0.0
24/04:30pm 25.1 23.4 16.3 58 5.4 ENE 20 35 11 19 - - 0.0
24/04:00pm 25.9 23.5 16.5 56 5.8 E 24 39 13 21 - - 0.0
24/03:30pm 26.6 24.4 16.8 55 6.1 E 24 35 13 19 - - 0.0
24/03:00pm 26.9 24.5 16.5 53 6.4 E 24 37 13 20 - - 0.0
24/02:30pm 27.6 25.9 16.2 49 7.0 E 20 33 11 18 - - 0.0
24/02:00pm 27.8 26.2 16.4 50 7.1 E 20 32 11 17 - - 0.0
24/01:30pm 28.2 26.8 15.5 46 7.8 ENE 17 26 9 14 - - 0.0
24/01:00pm 27.8 26.5 16.7 50 6.9 E 19 28 10 15 - - 0.0
24/12:30pm 26.9 26.2 16.5 53 6.4 E 15 24 8 13 - - 0.0
24/12:00pm 25.9 25.6 16.5 56 5.8 ESE 13 20 7 11 - - 0.0
24/11:30am 25.4 25.7 17.1 60 5.2 SE 11 19 6 10 - - 0.0
24/11:00am 24.1 24.4 16.9 64 4.4 SSE 11 17 6 9 - - 0.0
24/10:30am 23.1 24.4 17.1 69 3.7 SSE 6 13 3 7 - - 0.0
24/10:00am 21.5 22.6 16.7 74 2.9 SSE 6 11 3 6 - - 0.0
24/09:30am 20.0 21.1 16.6 81 2.1 SE 6 9 3 5 - - 0.0
24/09:00am 17.6 18.4 15.9 90 1.0 SE 6 9 3 5 - - 0.2
24/08:30am 16.9 18.8 16.6 98 0.2 S 2 7 1 4 - - 0.2
24/08:00am 15.6 17.4 15.4 99 0.1 CALM 0 0 0 0 - - 0.2
24/07:30am 14.6 16.0 14.3 98 0.2 CALM 0 6 0 3 - - 0.0
24/07:00am 13.9 15.0 13.6 98 0.2 CALM 0 0 0 0 - - 0.0
24/06:30am 13.6 13.9 13.3 98 0.2 ENE 4 9 2 5 - - 0.0
24/06:00am 13.1 13.1 12.5 96 0.3 NE 4 7 2 4 - - 0.0
24/05:30am 14.7 14.8 14.4 98 0.2 NW 7 9 4 5 - - 0.0
24/05:00am 14.1 13.9 13.5 96 0.3 WNW 7 11 4 6 - - 0.0
24/04:30am 14.9 14.7 14.6 98 0.2 N 9 11 5 6 - - 0.0
24/04:00am 14.9 15.2 14.6 98 0.2 NW 6 7 3 4 - - 0.0
24/03:30am 14.7 14.3 14.2 97 0.3 NNW 9 9 5 5 - - 0.0
24/03:00am 15.3 15.7 14.8 97 0.3 NW 6 9 3 5 - - 0.0
24/02:30am 15.3 15.5 14.8 97 0.3 NNW 7 9 4 5 - - 0.0
24/02:00am 15.6 16.0 15.3 98 0.2 WNW 7 9 4 5 - - 0.0
24/01:30am 15.4 15.6 14.8 96 0.3 WSW 7 7 4 4 - - 0.0
24/01:00am 16.1 16.8 15.5 96 0.3 N 6 7 3 4 - - 0.0
24/12:30am 16.2 18.0 15.6 96 0.4 CALM 0 0 0 0 - - 0.0
24/12:00am 16.4 18.2 15.6 95 0.5 CALM 0 0 0 0 - - 0.0
 
Date/Time
EDT
Temp
°C
App
Temp
°C
Dew
Point
Rel
Hum
%
Delta-T
°C
Wind Press
QNH
hPa
Press
MSL
hPa
Rain
since 9 am
mm
Dir
 
Spd
km/h
Gust
km/h
Spd
kts
Gust
kts
23/11:30pm 16.8 18.6 15.5 92 0.8 CALM 0 0 0 0 - - 0.0
23/11:00pm 17.2 18.0 15.9 92 0.8 E 6 9 3 5 - - 0.0
23/10:30pm 17.4 18.2 15.9 91 0.9 NE 6 7 3 4 - - 0.0
23/10:00pm 17.8 19.7 15.8 88 1.2 CALM 0 0 0 0 - - 0.0
23/09:30pm 17.9 19.9 15.9 88 1.2 CALM 0 0 0 0 - - 0.0
23/09:00pm 18.5 20.3 15.4 82 1.8 CALM 0 0 0 0 - - 0.0
23/08:30pm 18.7 19.4 15.6 82 1.8 NW 6 7 3 4 - - 0.0
23/08:00pm 19.5 20.3 15.8 79 2.2 NE 6 7 3 4 - - 0.0
23/07:30pm 20.0 20.6 15.8 77 2.5 NE 7 9 4 5 - - 0.0
23/07:00pm 20.1 20.9 16.3 79 2.3 E 7 11 4 6 - - 0.0
23/06:30pm 20.4 22.1 16.2 77 2.5 W 2 9 1 5 - - 0.0
23/06:00pm 20.8 21.5 16.0 74 2.9 ENE 7 13 4 7 - - 0.0
23/05:30pm 21.8 22.3 15.6 68 3.7 NE 7 13 4 7 - - 0.0
23/05:00pm 22.4 21.4 15.5 65 4.1 E 15 22 8 12 - - 0.0
23/04:30pm 23.6 22.4 15.1 59 5.1 ENE 15 26 8 14 - - 0.0
23/04:00pm 25.2 23.3 15.2 54 6.0 ENE 19 30 10 16 - - 0.0
23/03:30pm 26.5 24.5 14.9 49 7.0 ENE 19 30 10 16 - - 0.0
23/03:00pm 27.4 25.5 15.1 47 7.5 E 19 28 10 15 - - 0.0
23/02:30pm 28.5 25.9 13.2 39 9.1 ENE 19 28 10 15 - - 0.0
23/02:00pm 29.0 26.8 14.4 41 8.8 ENE 19 30 10 16 - - 0.0
23/01:30pm 28.5 26.5 14.0 41 8.7 E 17 24 9 13 - - 0.0
23/01:00pm 27.5 26.9 14.5 45 7.8 SSE 11 24 6 13 - - 0.0
23/12:30pm 27.2 26.5 13.2 42 8.2 ENE 9 15 5 8 - - 0.0
23/12:00pm 26.5 25.7 12.9 43 7.9 S 9 13 5 7 - - 0.0
23/11:30am 25.7 25.0 13.2 46 7.3 N 9 15 5 8 - - 0.0
23/11:00am 24.9 24.5 13.1 48 6.9 NNW 7 15 4 8 - - 0.0
23/10:30am 23.5 22.2 12.5 50 6.3 NNW 11 20 6 11 - - 0.0
23/10:00am 23.2 22.6 13.4 54 5.7 NW 9 17 5 9 - - 0.0
23/09:30am 21.7 20.2 12.0 54 5.5 N 11 20 6 11 - - 0.0
23/09:00am 20.8 19.9 12.5 59 4.7 NNW 9 15 5 8 - - 0.0
23/08:30am 19.9 18.9 12.4 62 4.2 N 9 17 5 9 - - 0.0
23/08:00am 18.3 17.8 12.7 70 3.1 N 7 9 4 5 - - 0.0
23/07:30am 16.6 16.2 12.9 79 2.1 NW 7 11 4 6 - - 0.0
23/07:00am 15.0 15.6 13.0 88 1.1 N 2 6 1 3 - - 0.0
23/06:30am 14.3 15.1 12.5 89 1.0 CALM 0 0 0 0 - - 0.0
23/06:00am 14.4 14.7 12.1 86 1.2 N 2 6 1 3 - - 0.0
23/05:30am 15.0 15.8 12.7 86 1.3 CALM 0 0 0 0 - - 0.0
23/05:00am 15.7 16.6 12.8 83 1.6 CALM 0 0 0 0 - - 0.0
23/04:30am 15.9 15.6 12.6 81 1.8 NW 6 9 3 5 - - 0.0
23/04:00am 15.4 16.4 13.2 87 1.2 CALM 0 0 0 0 - - 0.0
23/03:30am 15.2 16.2 13.2 88 1.1 CALM 0 0 0 0 - - 0.0
23/03:00am 15.1 16.1 13.3 89 1.0 CALM 0 0 0 0 - - 0.0
23/02:30am 15.0 16.1 13.5 91 0.8 CALM 0 0 0 0 - - 0.0
23/02:00am 15.0 16.1 13.5 91 0.8 CALM 0 0 0 0 - - 0.0
23/01:30am 14.8 15.1 13.3 91 0.8 NNE 4 7 2 4 - - 0.0
23/01:00am 14.9 15.2 13.3 90 0.9 NNE 4 7 2 4 - - 0.0
23/12:30am 15.1 16.1 13.3 89 1.0 CALM 0 0 0 0 - - 0.0
23/12:00am 15.0 15.8 12.7 86 1.3 CALM 0 0 0 0 - - 0.0
 
Date/Time
EDT
Temp
°C
App
Temp
°C
Dew
Point
Rel
Hum
%
Delta-T
°C
Wind Press
QNH
hPa
Press
MSL
hPa
Rain
since 9 am
mm
Dir
 
Spd
km/h
Gust
km/h
Spd
kts
Gust
kts
22/11:30pm 15.7 16.6 13.0 84 1.5 CALM 0 0 0 0 - - 0.0
22/11:00pm 16.2 17.2 13.3 83 1.6 CALM 0 0 0 0 - - 0.0
22/10:30pm 16.0 17.2 13.7 86 1.3 CALM 0 0 0 0 - - 0.0
22/10:00pm 16.0 16.8 12.7 81 1.8 CALM 0 0 0 0 - - 0.0
22/09:30pm 16.2 16.4 13.1 82 1.7 NNW 4 7 2 4 - - 0.0
22/09:00pm 16.2 16.7 12.9 81 1.8 NE 2 6 1 3 - - 0.0
22/08:30pm 16.8 16.6 12.9 78 2.2 NE 6 7 3 4 - - 0.0
22/08:00pm 17.2 16.7 12.7 75 2.5 ENE 7 11 4 6 - - 0.0
22/07:30pm 17.9 17.0 12.6 71 3.0 ENE 9 13 5 7 - - 0.0
22/07:00pm 18.9 17.9 12.2 65 3.7 ENE 9 15 5 8 - - 0.0
22/06:30pm 20.2 18.9 12.4 61 4.4 ENE 11 19 6 10 - - 0.0
22/06:00pm 21.0 18.5 12.2 57 4.9 E 17 24 9 13 - - 0.0
22/05:30pm 21.7 20.0 12.3 55 5.3 ENE 13 24 7 13 - - 0.0
22/05:00pm 22.2 19.8 12.7 55 5.4 ENE 17 22 9 12 - - 0.0
22/04:30pm 22.5 19.6 13.0 55 5.5 E 20 30 11 16 - - 0.0

Other Formats:

Comma delimited format used in spreadsheet applications
http://www.bom.gov.au/fwo/IDN60801/IDN60801.95571.axf

JavaScript Object Notation format (JSON) in row-major order
http://www.bom.gov.au/fwo/IDN60801/IDN60801.95571.json